Time;durP1;ratioP1;P1;durP2;ratioP2;P2;SDS_P1;SDS_P2;PMS_P1;PMS_P2;Temp;Humidity;BMP_temperature;BMP_pressure;BME280_temperature;BME280_humidity;BME280_pressure;Samples;Min_cycle;Max_cycle;Signal;HPM_P1;HPM_P2
2024/03/09 00:01:54;;;;;;;39.97;17.30;;;;;;;8.28;100.00;100312.56;5243764;28;20470;-73
2024/03/09 00:04:25;;;;;;;35.67;16.13;;;;;;;8.32;100.00;100313.91;5243629;28;20032;-75
2024/03/09 00:06:55;;;;;;;41.33;16.95;;;;;;;8.33;100.00;100320.94;5244324;28;20020;-73
2024/03/09 00:09:26;;;;;;;39.95;16.58;;;;;;;8.33;100.00;100315.59;5246367;28;20024;-73
2024/03/09 00:11:56;;;;;;;39.10;16.83;;;;;;;8.30;100.00;100308.75;5244059;28;20146;-73
2024/03/09 00:14:29;;;;;;;35.40;15.77;;;;;;;8.31;100.00;100305.06;5243990;28;20073;-73
2024/03/09 00:16:59;;;;;;;42.03;17.90;;;;;;;8.29;100.00;100307.06;5259679;28;20027;-77
2024/03/09 00:19:30;;;;;;;39.25;16.92;;;;;;;8.30;100.00;100300.72;5242675;28;20028;-73
2024/03/09 00:22:02;;;;;;;40.00;17.33;;;;;;;8.30;100.00;100298.06;5243842;28;20058;-73
2024/03/09 00:24:32;;;;;;;40.95;17.33;;;;;;;8.31;100.00;100301.56;5243336;28;20047;-73
2024/03/09 00:27:03;;;;;;;36.20;16.40;;;;;;;8.30;100.00;100298.06;5244528;28;20024;-72
2024/03/09 00:29:37;;;;;;;38.35;17.40;;;;;;;8.29;100.00;100300.91;5245459;28;20616;-77
2024/03/09 00:32:08;;;;;;;36.45;16.00;;;;;;;8.30;100.00;100294.53;5244136;28;20036;-74
2024/03/09 00:34:38;;;;;;;39.83;16.55;;;;;;;8.30;100.00;100290.03;5246703;28;20035;-74
2024/03/09 00:37:09;;;;;;;34.88;15.60;;;;;;;8.31;100.00;100290.88;5246764;28;20036;-73
2024/03/09 00:39:42;;;;;;;42.65;17.33;;;;;;;8.28;100.00;100292.06;5242990;28;20016;-73
2024/03/09 00:42:19;;;;;;;40.20;17.55;;;;;;;8.30;100.00;100286.53;5244420;28;20021;-73
2024/03/09 00:44:50;;;;;;;41.10;16.85;;;;;;;8.31;100.00;100273.00;5241318;28;20029;-75
2024/03/09 00:47:20;;;;;;;39.22;17.30;;;;;;;8.36;100.00;100275.19;5242770;28;20090;-76
2024/03/09 00:49:51;;;;;;;40.13;16.85;;;;;;;8.35;100.00;100270.84;5243176;28;20029;-73
2024/03/09 00:52:25;;;;;;;33.45;16.48;;;;;;;8.36;100.00;100263.66;5244008;28;20051;-73
2024/03/09 00:54:56;;;;;;;39.30;16.48;;;;;;;8.36;100.00;100256.50;5244936;28;20510;-72
2024/03/09 00:57:26;;;;;;;40.92;16.40;;;;;;;8.37;100.00;100257.31;5243407;28;20030;-73
2024/03/09 00:59:57;;;;;;;32.88;15.60;;;;;;;8.35;100.00;100256.63;5242681;28;20028;-73
2024/03/09 01:02:30;;;;;;;39.15;16.15;;;;;;;8.39;100.00;100244.66;5243573;28;20444;-74
2024/03/09 01:05:01;;;;;;;41.05;17.25;;;;;;;8.39;100.00;100242.81;5244920;28;20514;-73
2024/03/09 01:07:32;;;;;;;40.03;18.33;;;;;;;8.37;100.00;100235.94;5244222;28;20024;-72
2024/03/09 01:10:03;;;;;;;36.72;17.45;;;;;;;8.36;100.00;100235.13;5242154;28;20596;-76
2024/03/09 01:12:35;;;;;;;38.53;16.52;;;;;;;8.34;100.00;100231.75;5244037;28;20030;-72
2024/03/09 01:15:07;;;;;;;40.72;17.73;;;;;;;8.34;100.00;100236.25;5248380;28;20016;-72
2024/03/09 01:17:38;;;;;;;36.35;16.08;;;;;;;8.31;100.00;100238.25;5247783;28;20024;-72
2024/03/09 01:20:09;;;;;;;41.03;17.90;;;;;;;8.29;100.00;100228.75;5247003;28;20516;-74
2024/03/09 01:22:43;;;;;;;38.45;17.38;;;;;;;8.28;100.00;100227.91;5244182;28;20028;-73
2024/03/09 01:25:14;;;;;;;39.92;18.25;;;;;;;8.27;100.00;100223.53;5247924;28;20024;-72
2024/03/09 01:27:46;;;;;;;40.88;16.77;;;;;;;8.23;100.00;100224.91;5245013;28;20024;-73
2024/03/09 01:30:17;;;;;;;39.75;17.27;;;;;;;8.20;100.00;100225.22;5249031;28;20094;-73
2024/03/09 01:32:49;;;;;;;37.22;17.15;;;;;;;8.21;100.00;100213.53;5247678;28;20378;-73
2024/03/09 01:35:23;;;;;;;46.30;17.70;;;;;;;8.21;100.00;100218.03;5246761;28;20023;-74
2024/03/09 01:37:54;;;;;;;38.88;17.02;;;;;;;8.19;100.00;100209.38;5249694;28;20115;-77
2024/03/09 01:40:25;;;;;;;38.90;16.23;;;;;;;8.19;100.00;100217.38;5246928;28;20099;-74
2024/03/09 01:42:56;;;;;;;39.95;16.60;;;;;;;8.17;100.00;100208.69;5264001;28;20040;-73
2024/03/09 01:45:27;;;;;;;43.15;18.35;;;;;;;8.19;100.00;100204.03;5248411;28;20024;-75
2024/03/09 01:48:00;;;;;;;39.95;16.25;;;;;;;8.22;100.00;100206.34;5252420;28;20032;-72
2024/03/09 01:50:31;;;;;;;42.70;18.65;;;;;;;8.22;100.00;100207.16;5248270;28;20483;-75
2024/03/09 01:53:01;;;;;;;41.55;18.38;;;;;;;8.23;100.00;100203.53;5250565;28;20095;-72
2024/03/09 01:55:33;;;;;;;38.80;18.00;;;;;;;8.23;100.00;100194.66;5250150;28;20012;-72
2024/03/09 01:58:05;;;;;;;40.72;17.30;;;;;;;8.23;100.00;100191.97;5247576;28;20028;-76
2024/03/09 02:00:37;;;;;;;37.55;17.27;;;;;;;8.23;100.00;100195.50;5248038;28;20082;-73
2024/03/09 02:03:12;;;;;;;37.30;16.70;;;;;;;8.26;100.00;100202.34;5252478;28;20028;-72
2024/03/09 02:05:45;;;;;;;39.50;18.35;;;;;;;8.25;100.00;100196.16;5251164;28;20039;-72
2024/03/09 02:08:24;;;;;;;40.60;17.35;;;;;;;8.26;100.00;100194.31;5247423;28;20150;-73
2024/03/09 02:10:55;;;;;;;40.35;18.02;;;;;;;8.26;100.00;100197.00;5248368;28;20800;-72
2024/03/09 02:13:33;;;;;;;40.42;17.77;;;;;;;8.26;100.00;100199.66;5246626;28;20031;-72
2024/03/09 02:16:04;;;;;;;42.95;17.15;;;;;;;8.24;100.00;100191.81;5252335;28;20016;-73
2024/03/09 02:18:45;;;;;;;40.97;18.75;;;;;;;8.23;100.00;100183.97;5246808;28;20494;-72
2024/03/09 02:21:16;;;;;;;48.20;17.75;;;;;;;8.20;100.00;100179.78;5251192;28;20023;-78
2024/03/09 02:23:47;;;;;;;40.65;18.17;;;;;;;8.19;100.00;100180.81;5247792;28;20028;-72
2024/03/09 02:26:32;;;;;;;43.85;18.90;;;;;;;8.19;100.00;100186.16;5241405;28;20020;-72
2024/03/09 02:29:05;;;;;;;39.03;17.17;;;;;;;8.19;100.00;100178.13;5252514;28;20040;-72
2024/03/09 02:31:36;;;;;;;43.58;18.33;;;;;;;8.17;100.00;100173.94;5250703;28;20039;-77
2024/03/09 02:34:19;;;;;;;41.47;17.17;;;;;;;8.14;100.00;100175.13;5248741;28;20054;-74
2024/03/09 02:36:49;;;;;;;39.83;18.25;;;;;;;8.12;100.00;100181.63;5247929;28;20633;-73
2024/03/09 02:39:20;;;;;;;42.80;18.98;;;;;;;8.10;100.00;100168.44;5247173;28;20389;-76
2024/03/09 02:41:51;;;;;;;43.85;19.48;;;;;;;8.07;100.00;100168.75;5249527;28;20093;-73
2024/03/09 02:44:26;;;;;;;45.47;20.35;;;;;;;8.04;100.00;100166.44;5248195;28;20020;-74
2024/03/09 02:46:57;;;;;;;43.03;18.75;;;;;;;8.02;100.00;100169.25;5253574;28;20077;-74
2024/03/09 02:49:28;;;;;;;49.42;19.92;;;;;;;8.00;100.00;100160.59;5249846;28;20017;-73
2024/03/09 02:51:59;;;;;;;49.65;19.38;;;;;;;7.99;100.00;100153.59;5252964;28;20028;-73
2024/03/09 02:54:29;;;;;;;46.90;19.70;;;;;;;7.98;100.00;100157.25;5247425;28;20016;-73
2024/03/09 02:57:00;;;;;;;42.67;19.25;;;;;;;7.95;100.00;100154.91;5253466;28;20367;-73
2024/03/09 02:59:31;;;;;;;49.28;19.40;;;;;;;7.99;100.00;100147.41;5255607;28;20016;-73
2024/03/09 03:02:14;;;;;;;41.08;18.83;;;;;;;8.00;100.00;100155.25;5247503;28;20483;-73
2024/03/09 03:04:44;;;;;;;40.65;17.25;;;;;;;8.00;100.00;100144.56;5247059;28;20021;-77
2024/03/09 03:07:15;;;;;;;48.63;18.90;;;;;;;8.01;100.00;100146.22;5252132;28;20450;-74
2024/03/09 03:09:54;;;;;;;46.83;19.33;;;;;;;8.03;100.00;100144.25;5244068;28;20390;-75
2024/03/09 03:12:26;;;;;;;41.63;18.20;;;;;;;8.03;100.00;100138.91;5246899;28;20073;-73
2024/03/09 03:14:57;;;;;;;45.50;18.45;;;;;;;8.04;100.00;100135.22;5250032;28;20055;-73
2024/03/09 03:17:28;;;;;;;42.97;18.92;;;;;;;8.05;100.00;100134.22;5250315;28;20028;-73
2024/03/09 03:19:59;;;;;;;44.47;18.10;;;;;;;8.06;100.00;100132.38;5246504;28;20024;-73
2024/03/09 03:22:30;;;;;;;36.20;18.15;;;;;;;8.08;100.00;100121.50;5246535;28;20355;-73
2024/03/09 03:25:02;;;;;;;42.25;18.95;;;;;;;8.03;100.00;100124.69;5249630;28;20028;-73
2024/03/09 03:27:42;;;;;;;43.10;18.08;;;;;;;8.03;100.00;100120.19;5248229;28;20382;-73
2024/03/09 03:30:16;;;;;;;45.17;19.83;;;;;;;8.05;100.00;100118.19;5244312;28;20089;-72
2024/03/09 03:32:50;;;;;;;45.50;19.00;;;;;;;8.00;100.00;100117.84;5248424;28;20386;-73
2024/03/09 03:35:39;;;;;;;41.55;18.55;;;;;;;8.00;100.00;100111.69;5245541;28;20048;-76
2024/03/09 03:38:10;;;;;;;44.40;17.33;;;;;;;8.00;100.00;100117.03;5252497;28;20484;-75
2024/03/09 03:40:41;;;;;;;43.95;17.83;;;;;;;7.98;100.00;100113.66;5243179;28;20026;-78
2024/03/09 03:43:12;;;;;;;44.38;19.10;;;;;;;7.98;100.00;100116.34;5247638;28;20028;-75
2024/03/09 03:45:43;;;;;;;51.10;20.73;;;;;;;7.95;100.00;100112.19;5246108;28;20025;-78
2024/03/09 03:48:16;;;;;;;43.90;18.73;;;;;;;7.95;100.00;100106.84;5248805;28;20104;-74
2024/03/09 03:50:47;;;;;;;41.63;18.73;;;;;;;7.94;100.00;100118.53;5238312;28;20024;-76
2024/03/09 03:53:20;;;;;;;42.75;19.05;;;;;;;7.93;100.00;100108.00;5247821;28;20008;-75
2024/03/09 03:55:51;;;;;;;43.97;18.13;;;;;;;7.92;100.00;100103.66;5251638;28;20029;-75
2024/03/09 03:58:22;;;;;;;49.72;18.85;;;;;;;7.90;100.00;100101.16;5249395;28;20478;-75
2024/03/09 04:00:54;;;;;;;43.63;19.20;;;;;;;7.87;100.00;100112.16;5249481;28;20039;-79
2024/03/09 04:03:31;;;;;;;43.13;19.00;;;;;;;7.83;100.00;100105.50;5246012;28;20021;-72
2024/03/09 04:06:04;;;;;;;48.88;20.13;;;;;;;7.81;100.00;100106.66;5246069;28;20039;-76
2024/03/09 04:08:36;;;;;;;38.75;18.38;;;;;;;7.75;100.00;100103.66;5246303;28;20016;-73
2024/03/09 04:11:16;;;;;;;46.25;19.52;;;;;;;7.73;100.00;100107.47;5254239;28;20451;-73
2024/03/09 04:13:49;;;;;;;45.53;18.70;;;;;;;7.69;100.00;100098.16;5244406;28;20482;-76
2024/03/09 04:16:19;;;;;;;43.40;20.33;;;;;;;7.64;100.00;100095.97;5249033;28;20067;-73
2024/03/09 04:18:50;;;;;;;46.58;18.98;;;;;;;7.60;100.00;100091.97;5244467;28;20060;-72
2024/03/09 04:21:22;;;;;;;41.83;18.33;;;;;;;7.58;100.00;100087.78;5251195;28;20056;-77
2024/03/09 04:23:53;;;;;;;45.05;19.65;;;;;;;7.60;100.00;100089.28;5243619;28;20423;-75
2024/03/09 04:26:26;;;;;;;44.45;18.88;;;;;;;7.61;100.00;100090.13;5248403;28;20066;-75
2024/03/09 04:29:01;;;;;;;45.40;19.33;;;;;;;7.59;100.00;100086.81;5248021;28;20024;-72
2024/03/09 04:31:32;;;;;;;49.17;20.80;;;;;;;7.58;100.00;100085.09;5241629;28;20099;-74
2024/03/09 04:34:10;;;;;;;46.28;18.65;;;;;;;7.53;100.00;100089.13;5247739;28;20445;-73
2024/03/09 04:36:45;;;;;;;42.15;19.08;;;;;;;7.49;100.00;100086.97;5247044;28;20021;-73
2024/03/09 04:39:19;;;;;;;46.50;18.48;;;;;;;7.44;100.00;100087.44;5243968;28;20106;-73
2024/03/09 04:41:54;;;;;;;46.88;19.63;;;;;;;7.40;100.00;100086.09;5248933;28;20023;-73
2024/03/09 04:44:26;;;;;;;46.00;18.80;;;;;;;7.35;100.00;100079.59;5246870;28;20016;-73
2024/03/09 04:46:57;;;;;;;46.60;19.48;;;;;;;7.31;100.00;100081.75;5249655;28;20036;-74
2024/03/09 04:49:28;;;;;;;42.95;18.10;;;;;;;7.25;100.00;100080.56;5246240;28;20122;-73
2024/03/09 04:51:59;;;;;;;42.05;19.02;;;;;;;7.25;100.00;100077.91;5245291;28;20036;-73
2024/03/09 04:54:31;;;;;;;42.42;18.13;;;;;;;7.21;100.00;100073.88;5248042;28;20016;-74
2024/03/09 04:57:04;;;;;;;44.03;18.48;;;;;;;7.17;100.00;100077.88;5246590;28;20039;-73
2024/03/09 04:59:39;;;;;;;45.92;19.20;;;;;;;7.13;100.00;100065.88;5247574;28;20024;-72
2024/03/09 05:02:13;;;;;;;41.92;17.27;;;;;;;7.04;100.00;100061.50;5249763;28;20370;-75
2024/03/09 05:04:44;;;;;;;47.53;19.00;;;;;;;6.98;100.00;100071.00;5246307;28;20079;-72
2024/03/09 05:07:15;;;;;;;39.33;17.83;;;;;;;6.95;100.00;100067.81;5249416;28;20024;-72
2024/03/09 05:09:47;;;;;;;46.15;19.60;;;;;;;6.91;100.00;100051.28;5245353;28;20020;-74
2024/03/09 05:12:19;;;;;;;45.47;18.33;;;;;;;6.87;100.00;100057.94;5255891;28;20525;-74
2024/03/09 05:14:51;;;;;;;47.53;19.05;;;;;;;6.84;100.00;100062.78;5256391;28;20032;-73
2024/03/09 05:17:23;;;;;;;46.05;19.00;;;;;;;6.79;100.00;100063.25;5254525;28;20667;-75
2024/03/09 05:19:54;;;;;;;42.78;17.55;;;;;;;6.77;100.00;100053.75;5255097;28;20016;-72
2024/03/09 05:22:27;;;;;;;44.33;17.65;;;;;;;6.73;100.00;100048.75;5255220;28;20028;-72
2024/03/09 05:25:04;;;;;;;41.15;17.50;;;;;;;6.69;100.00;100046.56;5257210;28;20021;-74
2024/03/09 05:27:38;;;;;;;45.85;18.00;;;;;;;6.65;100.00;100053.19;5255178;28;20017;-76
2024/03/09 05:30:23;;;;;;;42.97;18.13;;;;;;;6.60;100.00;100039.53;5247246;28;20504;-73
2024/03/09 05:32:58;;;;;;;42.70;17.17;;;;;;;6.54;100.00;100038.34;5253603;28;20489;-72
2024/03/09 05:35:30;;;;;;;43.80;18.20;;;;;;;6.49;100.00;100035.31;5252534;28;20021;-75
2024/03/09 05:38:08;;;;;;;40.20;16.65;;;;;;;6.44;100.00;100038.47;5257148;28;20036;-75
2024/03/09 05:40:39;;;;;;;44.90;18.52;;;;;;;6.40;100.00;100031.78;5254676;28;20013;-74
2024/03/09 05:43:11;;;;;;;43.30;17.95;;;;;;;6.39;100.00;100034.59;5255398;28;20096;-75
2024/03/09 05:45:46;;;;;;;41.35;18.17;;;;;;;6.33;100.00;100036.06;5255603;28;20020;-75
2024/03/09 05:48:17;;;;;;;40.88;17.30;;;;;;;6.27;100.00;100031.34;5255695;28;20385;-74
2024/03/09 05:51:01;;;;;;;44.42;18.67;;;;;;;6.22;100.00;100034.53;5250509;28;20428;-74
2024/03/09 05:53:38;;;;;;;49.30;18.48;;;;;;;6.17;100.00;100042.13;5254441;28;20036;-75
2024/03/09 05:56:11;;;;;;;44.60;18.73;;;;;;;6.14;100.00;100031.81;5254646;28;20123;-72
2024/03/09 05:58:42;;;;;;;41.00;17.60;;;;;;;6.11;100.00;100042.75;5253341;28;20181;-73
2024/03/09 06:01:13;;;;;;;46.80;19.05;;;;;;;6.06;100.00;100041.56;5256896;28;20103;-72
2024/03/09 06:03:44;;;;;;;46.00;18.25;;;;;;;6.05;100.00;100043.38;5255234;28;20501;-77
2024/03/09 06:06:14;;;;;;;44.67;17.98;;;;;;;6.04;100.00;100040.91;5254423;28;20027;-75
2024/03/09 06:08:45;;;;;;;44.22;18.13;;;;;;;6.04;100.00;100052.38;5254762;28;20099;-75
2024/03/09 06:11:16;;;;;;;45.05;17.98;;;;;;;6.02;100.00;100045.53;5257822;28;20031;-74
2024/03/09 06:13:48;;;;;;;51.92;19.30;;;;;;;6.03;100.00;100041.91;5250429;28;20378;-75
2024/03/09 06:16:19;;;;;;;47.78;18.40;;;;;;;6.03;100.00;100039.22;5258721;28;20518;-78
2024/03/09 06:18:49;;;;;;;43.15;18.70;;;;;;;6.01;100.00;100044.69;5251228;28;20028;-75
2024/03/09 06:21:22;;;;;;;42.35;17.63;;;;;;;6.00;100.00;100036.88;5252944;28;20016;-75
2024/03/09 06:23:53;;;;;;;46.10;19.08;;;;;;;6.01;100.00;100038.53;5251461;28;20047;-74
2024/03/09 06:26:23;;;;;;;47.53;18.08;;;;;;;6.05;100.00;100039.91;5249923;28;20027;-74
2024/03/09 06:28:54;;;;;;;42.83;17.98;;;;;;;6.11;100.00;100037.44;5249359;28;20024;-74
2024/03/09 06:31:24;;;;;;;43.47;17.30;;;;;;;6.17;100.00;100046.63;5245713;28;20024;-74
2024/03/09 06:33:56;;;;;;;41.72;17.13;;;;;;;6.26;100.00;100035.03;5256028;28;20020;-74
2024/03/09 06:36:26;;;;;;;40.67;17.70;;;;;;;6.32;100.00;100038.88;5252968;28;20028;-74
2024/03/09 06:38:57;;;;;;;45.67;17.38;;;;;;;6.39;100.00;100035.44;5249553;28;20024;-72
2024/03/09 06:41:27;;;;;;;37.75;16.45;;;;;;;6.52;100.00;100036.81;5249406;28;20385;-72
2024/03/09 06:43:58;;;;;;;44.55;16.98;;;;;;;6.69;100.00;100041.22;5254834;28;20044;-72
2024/03/09 06:46:28;;;;;;;42.58;16.77;;;;;;;6.91;100.00;100034.47;5249717;28;20028;-72
2024/03/09 06:48:59;;;;;;;45.53;17.02;;;;;;;7.19;100.00;100030.53;5252350;28;20021;-72
2024/03/09 06:51:29;;;;;;;39.03;17.10;;;;;;;7.49;100.00;100033.56;5251871;28;20048;-72
2024/03/09 06:54:00;;;;;;;42.03;16.92;;;;;;;7.79;100.00;100038.25;5255459;28;20028;-72
2024/03/09 06:56:32;;;;;;;37.85;16.33;;;;;;;8.11;100.00;100038.38;5249331;28;20020;-72
2024/03/09 06:59:03;;;;;;;37.03;15.80;;;;;;;8.46;100.00;100035.28;5252301;28;20031;-72
2024/03/09 07:01:34;;;;;;;33.28;15.88;;;;;;;8.79;100.00;100037.84;5254765;28;20028;-72
2024/03/09 07:04:06;;;;;;;39.08;15.10;;;;;;;9.00;100.00;100039.91;5247785;28;20485;-72
2024/03/09 07:06:37;;;;;;;32.47;14.93;;;;;;;9.18;100.00;100039.63;5245659;28;20028;-72
2024/03/09 07:09:11;;;;;;;38.10;16.20;;;;;;;9.27;100.00;100039.41;5249852;28;20028;-72
2024/03/09 07:11:42;;;;;;;32.55;15.15;;;;;;;9.44;100.00;100034.78;5252547;28;20416;-72
2024/03/09 07:14:12;;;;;;;31.38;14.38;;;;;;;9.72;100.00;100034.22;5257674;28;20016;-72
2024/03/09 07:16:43;;;;;;;35.25;15.32;;;;;;;10.10;100.00;100033.19;5249251;28;20048;-72
2024/03/09 07:19:14;;;;;;;35.25;15.52;;;;;;;10.66;100.00;100031.94;5251700;28;20034;-72
2024/03/09 07:21:44;;;;;;;34.60;15.40;;;;;;;11.14;100.00;100031.31;5248572;28;20036;-72
2024/03/09 07:24:15;;;;;;;33.88;14.50;;;;;;;11.48;100.00;100026.25;5253406;28;20035;-72
2024/03/09 07:26:47;;;;;;;26.67;13.23;;;;;;;11.97;100.00;100020.94;5250192;28;20013;-73
2024/03/09 07:29:20;;;;;;;28.33;13.50;;;;;;;12.30;100.00;100023.88;5253479;28;20091;-72
2024/03/09 07:31:50;;;;;;;33.33;13.85;;;;;;;12.56;100.00;100020.50;5250766;28;20059;-73
2024/03/09 07:34:21;;;;;;;28.90;13.88;;;;;;;12.73;100.00;100028.22;5255118;28;20089;-73
2024/03/09 07:36:55;;;;;;;28.67;14.52;;;;;;;13.02;100.00;100033.31;5251004;28;20024;-73
2024/03/09 07:39:25;;;;;;;28.58;13.80;;;;;;;13.24;100.00;100027.81;5252199;28;20031;-73
2024/03/09 07:41:56;;;;;;;30.05;14.38;;;;;;;13.49;100.00;100034.28;5249700;28;20028;-73
2024/03/09 07:44:26;;;;;;;27.80;13.82;;;;;;;13.61;100.00;100024.56;5254402;28;20042;-73
2024/03/09 07:46:57;;;;;;;28.27;14.23;;;;;;;13.82;100.00;100030.81;5254067;28;20039;-73
2024/03/09 07:49:28;;;;;;;23.88;13.05;;;;;;;13.77;100.00;100028.72;5251583;28;20024;-73
2024/03/09 07:51:58;;;;;;;23.98;13.18;;;;;;;14.03;100.00;100029.75;5252652;28;20038;-73
2024/03/09 07:54:29;;;;;;;22.30;12.30;;;;;;;14.19;100.00;100032.00;5255476;28;20051;-73
2024/03/09 07:56:59;;;;;;;28.75;13.65;;;;;;;14.31;100.00;100033.06;5253956;28;20027;-74
2024/03/09 07:59:30;;;;;;;25.17;13.15;;;;;;;14.50;100.00;100029.47;5251221;28;22200;-74
2024/03/09 08:02:00;;;;;;;26.08;13.85;;;;;;;14.77;100.00;100019.44;5253215;28;20083;-74
2024/03/09 08:04:31;;;;;;;24.10;13.32;;;;;;;14.92;100.00;100023.75;5248270;28;20474;-73
2024/03/09 08:07:02;;;;;;;24.02;12.45;;;;;;;14.64;100.00;100024.88;5259373;28;20032;-73
2024/03/09 08:09:32;;;;;;;23.25;12.68;;;;;;;14.55;100.00;100017.22;5246679;28;20028;-74
2024/03/09 08:12:03;;;;;;;24.20;12.82;;;;;;;14.79;100.00;100016.53;5234292;28;20102;-72
2024/03/09 08:14:34;;;;;;;21.63;12.82;;;;;;;14.99;100.00;100014.56;5244456;28;20016;-73
2024/03/09 08:17:06;;;;;;;20.42;12.20;;;;;;;15.16;100.00;100016.75;5237886;28;20082;-74
2024/03/09 08:19:39;;;;;;;18.45;11.85;;;;;;;15.27;100.00;100011.50;5246510;28;20027;-73
2024/03/09 08:22:10;;;;;;;24.73;12.25;;;;;;;15.50;100.00;100005.53;5259326;28;20116;-73
2024/03/09 08:24:46;;;;;;;21.65;12.18;;;;;;;15.74;100.00;100006.63;5247680;28;20094;-74
2024/03/09 08:27:20;;;;;;;23.20;12.18;;;;;;;15.72;100.00;100008.75;5257414;28;20078;-74
2024/03/09 08:29:51;;;;;;;21.58;11.68;;;;;;;15.39;100.00;100010.81;5245458;28;20426;-74
2024/03/09 08:32:25;;;;;;;22.38;11.20;;;;;;;14.90;100.00;100007.75;5248195;28;20115;-73
2024/03/09 08:34:55;;;;;;;21.17;10.38;;;;;;;14.40;100.00;100001.25;5250875;28;20020;-73
2024/03/09 08:37:27;;;;;;;21.98;11.68;;;;;;;13.78;100.00;100006.13;5247499;28;20058;-74
2024/03/09 08:39:58;;;;;;;23.23;11.82;;;;;;;13.94;100.00;100002.16;5246415;28;20028;-74
2024/03/09 08:42:51;;;;;;;21.58;11.50;;;;;;;14.63;100.00;99998.94;5249368;28;20016;-74
2024/03/09 08:45:28;;;;;;;20.27;10.88;;;;;;;15.40;100.00;99996.25;5240094;28;20508;-74
2024/03/09 08:47:59;;;;;;;23.75;10.65;;;;;;;15.90;100.00;99996.31;5261907;28;20151;-73
2024/03/09 08:50:29;;;;;;;24.77;11.23;;;;;;;16.11;100.00;99992.34;5249332;28;20023;-74
2024/03/09 08:53:00;;;;;;;23.00;11.52;;;;;;;15.87;100.00;100008.41;5247737;28;20036;-74
2024/03/09 08:55:33;;;;;;;23.83;11.60;;;;;;;15.27;100.00;100005.28;5249524;28;20077;-73
2024/03/09 08:58:05;;;;;;;20.27;11.43;;;;;;;14.78;100.00;100001.38;5249081;28;20063;-73
2024/03/09 09:00:37;;;;;;;25.90;13.82;;;;;;;14.20;100.00;99994.03;5245455;28;20150;-74
2024/03/09 09:03:11;;;;;;;23.83;11.40;;;;;;;13.60;100.00;99989.72;5249693;28;20377;-72
2024/03/09 09:05:42;;;;;;;20.77;10.95;;;;;;;12.90;100.00;99983.75;5245157;28;20486;-74
2024/03/09 09:08:24;;;;;;;24.27;13.35;;;;;;;12.68;100.00;99983.06;5242327;28;20462;-74
2024/03/09 09:10:55;;;;;;;21.27;11.07;;;;;;;12.42;100.00;99981.09;5244019;28;20494;-73
2024/03/09 09:13:27;;;;;;;24.10;11.05;;;;;;;12.26;100.00;99974.19;5247818;28;20028;-73
2024/03/09 09:15:58;;;;;;;22.70;11.13;;;;;;;12.23;100.00;99973.75;5248535;28;20106;-73
2024/03/09 09:18:29;;;;;;;26.88;11.35;;;;;;;12.21;100.00;99968.56;5239981;28;20238;-73
2024/03/09 09:20:59;;;;;;;19.50;10.13;;;;;;;12.29;100.00;99976.47;5249359;28;20095;-73
2024/03/09 09:23:30;;;;;;;19.67;10.85;;;;;;;12.40;100.00;99967.84;5246460;28;20025;-73
2024/03/09 09:26:01;;;;;;;23.25;11.73;;;;;;;12.57;100.00;99965.63;5248026;28;20077;-72
2024/03/09 09:28:32;;;;;;;20.60;10.32;;;;;;;12.79;100.00;99962.81;5246592;28;20497;-73
2024/03/09 09:31:04;;;;;;;21.85;10.73;;;;;;;12.92;100.00;99960.19;5250031;28;20501;-73
2024/03/09 09:33:35;;;;;;;20.63;9.93;;;;;;;12.89;100.00;99961.41;5246345;28;20047;-73
2024/03/09 09:36:07;;;;;;;22.63;10.07;;;;;;;12.87;100.00;99962.66;5251341;28;20020;-73
2024/03/09 09:38:40;;;;;;;18.77;8.85;;;;;;;12.74;100.00;99957.22;5244702;28;20056;-73
2024/03/09 09:41:14;;;;;;;19.10;9.40;;;;;;;12.57;100.00;99965.63;5251137;28;20397;-73
2024/03/09 09:43:47;;;;;;;20.70;9.88;;;;;;;12.46;100.00;99954.63;5246788;28;20056;-72
2024/03/09 09:46:17;;;;;;;19.65;10.20;;;;;;;12.46;100.00;99960.84;5244005;28;20025;-72
2024/03/09 09:48:52;;;;;;;20.75;9.70;;;;;;;12.39;100.00;99951.88;5245681;28;20154;-73
2024/03/09 09:51:25;;;;;;;24.88;10.48;;;;;;;12.34;100.00;99957.88;5242407;28;20025;-73
2024/03/09 09:53:58;;;;;;;19.80;9.45;;;;;;;12.24;100.00;99951.19;5249682;28;20060;-73
2024/03/09 09:56:28;;;;;;;18.42;9.13;;;;;;;12.26;100.00;99957.22;5252099;28;20024;-73
2024/03/09 09:59:04;;;;;;;20.45;9.27;;;;;;;12.23;100.00;99961.13;5248339;28;20547;-73
2024/03/09 10:01:35;;;;;;;19.08;8.75;;;;;;;12.27;100.00;99953.50;5250557;28;20110;-73
2024/03/09 10:04:13;;;;;;;18.67;9.25;;;;;;;12.26;100.00;99951.84;5249309;28;20033;-73
2024/03/09 10:06:49;;;;;;;20.45;8.43;;;;;;;12.30;100.00;99958.47;5252100;28;20024;-72
2024/03/09 10:09:28;;;;;;;20.45;8.88;;;;;;;12.44;100.00;99952.13;5249622;28;20028;-73
2024/03/09 10:11:59;;;;;;;18.75;9.63;;;;;;;12.54;100.00;99946.38;5256332;28;20064;-72
2024/03/09 10:14:32;;;;;;;16.55;8.57;;;;;;;12.61;100.00;99937.31;5248291;28;20047;-73
2024/03/09 10:17:14;;;;;;;21.63;8.70;;;;;;;12.67;100.00;99928.41;5247727;28;20039;-72
2024/03/09 10:19:49;;;;;;;18.08;8.45;;;;;;;12.70;100.00;99929.88;5252992;28;20104;-73
2024/03/09 10:22:21;;;;;;;16.17;8.82;;;;;;;12.90;100.00;99924.53;5248317;28;20095;-73
2024/03/09 10:24:52;;;;;;;16.52;8.80;;;;;;;12.94;100.00;99925.78;5254075;28;20044;-72
2024/03/09 10:27:26;;;;;;;17.77;8.10;;;;;;;13.04;100.00;99930.78;5253616;28;20111;-72
2024/03/09 10:30:15;;;;;;;17.10;8.50;;;;;;;13.13;100.00;99925.00;5248092;28;20033;-73
2024/03/09 10:32:47;;;;;;;17.90;8.15;;;;;;;13.26;100.00;99926.94;5251172;28;20020;-73
2024/03/09 10:35:18;;;;;;;18.10;8.05;;;;;;;13.35;100.00;99912.19;5252247;28;20703;-72
2024/03/09 10:37:55;;;;;;;17.73;8.00;;;;;;;13.32;100.00;99917.19;5252651;28;20074;-73
2024/03/09 10:40:26;;;;;;;17.52;8.70;;;;;;;13.25;100.00;99922.56;5246806;28;20031;-73
2024/03/09 10:42:57;;;;;;;18.17;8.63;;;;;;;13.27;100.00;99914.28;5246435;28;20028;-73
2024/03/09 10:45:31;;;;;;;21.20;9.00;;;;;;;13.12;100.00;99915.28;5252800;28;20062;-73
2024/03/09 10:48:05;;;;;;;19.45;8.65;;;;;;;13.19;100.00;99913.41;5256586;28;20099;-73
2024/03/09 10:50:40;;;;;;;17.80;9.00;;;;;;;13.20;100.00;99914.22;5251362;28;20060;-73
2024/03/09 10:53:27;;;;;;;16.45;8.68;;;;;;;13.28;100.00;99910.56;5250038;28;20028;-73
2024/03/09 10:56:15;;;;;;;16.15;8.65;;;;;;;13.29;100.00;99906.81;5243576;28;20029;-73
2024/03/09 10:58:47;;;;;;;19.90;8.55;;;;;;;13.32;100.00;99912.63;5252500;28;20563;-75
2024/03/09 11:01:21;;;;;;;18.10;9.23;;;;;;;13.45;100.00;99896.47;5252541;28;20059;-73
2024/03/09 11:03:52;;;;;;;16.70;9.13;;;;;;;13.58;100.00;99894.78;5257361;28;20157;-73
2024/03/09 11:06:23;;;;;;;21.70;8.43;;;;;;;13.60;100.00;99896.22;5253743;28;20040;-73
2024/03/09 11:08:56;;;;;;;16.70;9.23;;;;;;;13.64;100.00;99893.94;5248721;28;20024;-73
2024/03/09 11:11:31;;;;;;;18.27;8.93;;;;;;;13.73;100.00;99887.31;5250745;28;20023;-73
2024/03/09 11:14:03;;;;;;;21.25;8.70;;;;;;;13.71;100.00;99878.63;5252521;28;20359;-73
2024/03/09 11:16:34;;;;;;;18.75;8.98;;;;;;;13.73;100.00;99873.81;5253570;28;20024;-73
2024/03/09 11:19:13;;;;;;;15.05;7.68;;;;;;;13.68;100.00;99871.75;5250400;28;20414;-73
2024/03/09 11:21:48;;;;;;;16.55;8.18;;;;;;;13.63;100.00;99865.34;5250482;28;20042;-72
2024/03/09 11:24:20;;;;;;;19.42;8.15;;;;;;;13.68;100.00;99865.53;5246461;28;20054;-73
2024/03/09 11:26:52;;;;;;;15.18;7.88;;;;;;;13.78;100.00;99863.25;5249082;28;20096;-73
2024/03/09 11:29:28;;;;;;;17.38;8.82;;;;;;;13.93;100.00;99863.81;5255053;28;20126;-73
2024/03/09 11:32:01;;;;;;;17.48;8.40;;;;;;;14.11;100.00;99854.25;5252841;28;20485;-73
2024/03/09 11:34:32;;;;;;;17.95;8.73;;;;;;;14.16;100.00;99849.84;5251460;28;20027;-73